PWSweather.com
Personal Weather Stations
Station Observations
WATERF01
WaterfordIE

WaterfordIE

Lat: 52.2412507, Lon: -7.1414691

Elevation: 65

Station Type: Davis Vantage Vue

Latest ConditionsUpdated 5:00:01 PM GMT Monday, Jan 21, 2019
Currently Today's Max Today's Min Today's Average
Temperature 45.1°F7.3°C 46.2°F7.9°C 31.6°F-0.2°C 38.0°F3.3°C
Dew Point 41.5°F5.3°C 42.2°F5.7°C 28.7°F-1.8°C 34.5°F1.4°C
Winds 9.2 mph WSW14.8 kmh WSW 10.4 mph -16.7 kmh - - 3.0 mph 4.8 kmh
Wind Gusts 13.8 mph22.2 kmh 19.6 mph31.5 kmh - -
Humidity 87% 90% 80% 87%
Pressure 29.81 in1009.5 mb 30.35 in1027.8 mb 29.81 in1009.5 mb -
Precipitation - 0.18 in4.6 mm - -
Hour Temp Dew Point Humidity Winds Wind Gusts Pressure Precip Precip Rate Daily Precip Total
05:00 PM 45.1°F7.3°C 41.5°F5.3°C 87% 9.2 mph WSW14.8 kmh WSW 13.8 mph22.2 kmh 29.81 in1009.5 mb - 0.10 in2.5 mm 0.18 in4.6 mm
04:50 PM 45.2°F7.3°C 41.6°F5.3°C 87% 8.1 mph W13.0 kmh W 16.1 mph25.9 kmh 29.82 in1009.8 mb - 0.10 in2.5 mm 0.16 in4.1 mm
04:40 PM 45.6°F7.6°C 42.0°F5.6°C 87% 10.4 mph W16.7 kmh W 16.1 mph25.9 kmh 29.83 in1010.2 mb - 0.09 in2.3 mm 0.14 in3.6 mm
04:30 PM 45.6°F7.6°C 41.7°F5.4°C 86% 8.1 mph NW13.0 kmh NW 18.4 mph29.6 kmh 29.83 in1010.2 mb - 0.09 in2.3 mm 0.13 in3.3 mm
04:20 PM 45.7°F7.6°C 42.1°F5.6°C 87% 8.1 mph WNW13.0 kmh WNW 13.8 mph22.2 kmh 29.84 in1010.5 mb - 0.09 in2.3 mm 0.11 in2.8 mm
04:10 PM 45.9°F7.7°C 42.2°F5.7°C 87% 9.2 mph SSW14.8 kmh SSW 19.6 mph31.5 kmh 29.85 in1010.8 mb - 0.09 in2.3 mm 0.10 in2.5 mm
04:00 PM 45.8°F7.7°C 41.8°F5.4°C 86% 9.2 mph WSW14.8 kmh WSW 15.0 mph24.1 kmh 29.86 in1011.2 mb - 0.07 in1.8 mm 0.08 in2.0 mm
03:50 PM 45.7°F7.6°C 41.8°F5.4°C 86% 9.2 mph W14.8 kmh W 13.8 mph22.2 kmh 29.87 in1011.5 mb - 0.07 in1.8 mm 0.07 in1.8 mm
03:40 PM 45.6°F7.6°C 41.7°F5.4°C 86% 9.2 mph SW14.8 kmh SW 15.0 mph24.1 kmh 29.88 in1011.9 mb - 0.06 in1.5 mm 0.06 in1.5 mm
03:30 PM 45.7°F7.6°C 41.7°F5.4°C 86% 8.1 mph WNW13.0 kmh WNW 15.0 mph24.1 kmh 29.90 in1012.5 mb - 0.05 in1.3 mm 0.05 in1.3 mm
03:20 PM 45.9°F7.7°C 41.6°F5.3°C 85% 8.1 mph SW13.0 kmh SW 15.0 mph24.1 kmh 29.91 in1012.9 mb - 0.02 in0.5 mm 0.02 in0.5 mm
03:10 PM 45.9°F7.7°C 41.3°F5.2°C 84% 10.4 mph SW16.7 kmh SW 13.8 mph22.2 kmh 29.92 in1013.2 mb - 0.01 in0.3 mm 0.01 in0.3 mm
03:00 PM 45.9°F7.7°C 41.6°F5.3°C 85% 6.9 mph WNW11.1 kmh WNW 13.8 mph22.2 kmh 29.94 in1013.9 mb - 0.01 in0.3 mm 0.01 in0.3 mm
02:50 PM 45.6°F7.6°C 41.4°F5.2°C 85% 8.1 mph WSW13.0 kmh WSW 15.0 mph24.1 kmh 29.94 in1013.9 mb - 0.00 in0.0 mm 0.00 in0.0 mm
02:40 PM 45.6°F7.6°C 41.0°F5.0°C 84% 6.9 mph WSW11.1 kmh WSW 11.5 mph18.5 kmh 29.96 in1014.6 mb - 0.00 in0.0 mm 0.00 in0.0 mm
02:30 PM 45.6°F7.6°C 40.7°F4.8°C 83% 6.9 mph WSW11.1 kmh WSW 11.5 mph18.5 kmh 29.96 in1014.6 mb - 0.00 in0.0 mm 0.00 in0.0 mm
02:20 PM 45.9°F7.7°C 41.0°F5.0°C 83% 8.1 mph W13.0 kmh W 13.8 mph22.2 kmh 29.98 in1015.2 mb - 0.00 in0.0 mm 0.00 in0.0 mm
02:10 PM 45.6°F7.6°C 41.0°F5.0°C 84% 8.1 mph W13.0 kmh W 13.8 mph22.2 kmh 29.98 in1015.2 mb - 0.00 in0.0 mm 0.00 in0.0 mm
02:00 PM 45.4°F7.4°C 40.8°F4.9°C 84% 5.8 mph W9.3 kmh W 9.2 mph14.8 kmh 30.00 in1015.9 mb - 0.00 in0.0 mm 0.00 in0.0 mm
01:50 PM 45.7°F7.6°C 40.5°F4.7°C 82% 9.2 mph WSW14.8 kmh WSW 15.0 mph24.1 kmh 30.01 in1016.3 mb - 0.00 in0.0 mm 0.00 in0.0 mm
01:40 PM 46.0°F7.8°C 40.2°F4.6°C 80% 8.1 mph WNW13.0 kmh WNW 16.1 mph25.9 kmh 30.02 in1016.6 mb - 0.00 in0.0 mm 0.00 in0.0 mm
01:30 PM 46.2°F7.9°C 40.4°F4.7°C 80% 8.1 mph WSW13.0 kmh WSW 15.0 mph24.1 kmh 30.02 in1016.6 mb - 0.00 in0.0 mm 0.00 in0.0 mm
01:20 PM 46.0°F7.8°C 40.5°F4.7°C 81% 6.9 mph WNW11.1 kmh WNW 11.5 mph18.5 kmh 30.03 in1016.9 mb - 0.00 in0.0 mm 0.00 in0.0 mm
01:10 PM 45.6°F7.6°C 40.1°F4.5°C 81% 6.9 mph N11.1 kmh N 11.5 mph18.5 kmh 30.04 in1017.3 mb - 0.00 in0.0 mm 0.00 in0.0 mm
01:00 PM 45.3°F7.4°C 39.8°F4.3°C 81% 5.8 mph SW9.3 kmh SW 9.2 mph14.8 kmh 30.06 in1017.9 mb - 0.00 in0.0 mm 0.00 in0.0 mm
12:50 PM 44.9°F7.2°C 39.4°F4.1°C 81% 6.9 mph WSW11.1 kmh WSW 11.5 mph18.5 kmh 30.07 in1018.3 mb - 0.00 in0.0 mm 0.00 in0.0 mm
12:40 PM 44.8°F7.1°C 39.0°F3.9°C 80% 4.6 mph SW7.4 kmh SW 11.5 mph18.5 kmh 30.08 in1018.6 mb - 0.00 in0.0 mm 0.00 in0.0 mm
12:30 PM 44.7°F7.1°C 39.2°F4.0°C 81% 5.8 mph WSW9.3 kmh WSW 9.2 mph14.8 kmh 30.08 in1018.6 mb - 0.00 in0.0 mm 0.00 in0.0 mm
12:20 PM 44.5°F6.9°C 39.3°F4.1°C 82% 4.6 mph WSW7.4 kmh WSW 12.7 mph20.4 kmh 30.09 in1019.0 mb - 0.00 in0.0 mm 0.00 in0.0 mm
12:10 PM 44.3°F6.8°C 39.5°F4.2°C 83% 4.6 mph WSW7.4 kmh WSW 8.1 mph13.0 kmh 30.09 in1019.0 mb - 0.00 in0.0 mm 0.00 in0.0 mm
12:00 PM 43.8°F6.6°C 39.6°F4.2°C 85% 3.5 mph WSW5.6 kmh WSW 6.9 mph11.1 kmh 30.10 in1019.3 mb - 0.00 in0.0 mm 0.00 in0.0 mm
11:50 AM 43.1°F6.2°C 39.5°F4.2°C 87% 3.5 mph WSW5.6 kmh WSW 5.8 mph9.3 kmh 30.10 in1019.3 mb - 0.00 in0.0 mm 0.00 in0.0 mm
11:40 AM 42.4°F5.8°C 39.1°F3.9°C 88% 1.2 mph SW1.9 kmh SW 2.3 mph3.7 kmh 30.11 in1019.6 mb - 0.00 in0.0 mm 0.00 in0.0 mm
11:30 AM 41.5°F5.3°C 38.2°F3.4°C 88% 2.3 mph WNW3.7 kmh WNW 5.8 mph9.3 kmh 30.12 in1020.0 mb - 0.00 in0.0 mm 0.00 in0.0 mm
11:20 AM 41.1°F5.1°C 38.1°F3.4°C 89% 2.3 mph WNW3.7 kmh WNW 5.8 mph9.3 kmh 30.14 in1020.7 mb - 0.00 in0.0 mm 0.00 in0.0 mm
11:10 AM 40.4°F4.7°C 37.7°F3.2°C 90% Calm Calm -- 30.14 in1020.7 mb - 0.00 in0.0 mm 0.00 in0.0 mm
11:00 AM 39.1°F3.9°C 36.4°F2.4°C 90% 2.3 mph W3.7 kmh W 4.6 mph7.4 kmh 30.15 in1021.0 mb - 0.00 in0.0 mm 0.00 in0.0 mm
10:50 AM 35.5°F1.9°C 32.9°F0.5°C 90% Calm Calm -- 30.15 in1021.0 mb - 0.00 in0.0 mm 0.00 in0.0 mm
10:40 AM 35.1°F1.7°C 32.5°F0.3°C 90% Calm Calm -- 30.15 in1021.0 mb - 0.00 in0.0 mm 0.00 in0.0 mm
10:30 AM 34.6°F1.4°C 32.0°F0.0°C 90% Calm Calm -- 30.16 in1021.3 mb - 0.00 in0.0 mm 0.00 in0.0 mm
10:20 AM 34.4°F1.3°C 31.8°F-0.1°C 90% Calm Calm -- 30.16 in1021.3 mb - 0.00 in0.0 mm 0.00 in0.0 mm
10:10 AM 34.0°F1.1°C 31.4°F-0.3°C 90% Calm Calm -- 30.17 in1021.7 mb - 0.00 in0.0 mm 0.00 in0.0 mm
10:00 AM 34.0°F1.1°C 31.4°F-0.3°C 90% Calm Calm -- 30.18 in1022.0 mb - 0.00 in0.0 mm 0.00 in0.0 mm
09:50 AM 34.1°F1.2°C 31.5°F-0.3°C 90% Calm Calm -- 30.19 in1022.4 mb - 0.00 in0.0 mm 0.00 in0.0 mm
09:40 AM 34.3°F1.3°C 31.7°F-0.2°C 90% Calm Calm -- 30.19 in1022.4 mb - 0.00 in0.0 mm 0.00 in0.0 mm
09:30 AM 32.7°F0.4°C 30.1°F-1.1°C 90% Calm Calm -- 30.20 in1022.7 mb - 0.00 in0.0 mm 0.00 in0.0 mm
09:20 AM 32.1°F0.1°C 29.5°F-1.4°C 90% 2.3 mph SSE3.7 kmh SSE 4.6 mph7.4 kmh 30.20 in1022.7 mb - 0.00 in0.0 mm 0.00 in0.0 mm
09:10 AM 31.7°F-0.2°C 29.1°F-1.6°C 90% Calm Calm -- 30.21 in1023.0 mb - 0.00 in0.0 mm 0.00 in0.0 mm
09:00 AM 31.8°F-0.1°C 29.2°F-1.6°C 90% Calm Calm -- 30.21 in1023.0 mb - 0.00 in0.0 mm 0.00 in0.0 mm
08:50 AM 31.7°F-0.2°C 29.1°F-1.6°C 90% Calm Calm -- 30.22 in1023.4 mb - 0.00 in0.0 mm 0.00 in0.0 mm
08:40 AM 31.6°F-0.2°C 29.0°F-1.7°C 90% Calm Calm -- 30.22 in1023.4 mb - 0.00 in0.0 mm 0.00 in0.0 mm
08:30 AM 31.8°F-0.1°C 29.2°F-1.6°C 90% Calm Calm -- 30.22 in1023.4 mb - 0.00 in0.0 mm 0.00 in0.0 mm
08:20 AM 31.8°F-0.1°C 29.2°F-1.6°C 90% Calm Calm -- 30.23 in1023.7 mb - 0.00 in0.0 mm 0.00 in0.0 mm
08:10 AM 31.9°F-0.1°C 29.3°F-1.5°C 90% Calm Calm -- 30.24 in1024.0 mb - 0.00 in0.0 mm 0.00 in0.0 mm
08:00 AM 31.6°F-0.2°C 28.7°F-1.8°C 89% Calm Calm -- 30.24 in1024.0 mb - 0.00 in0.0 mm 0.00 in0.0 mm
07:50 AM 31.6°F-0.2°C 28.7°F-1.8°C 89% Calm Calm -- 30.25 in1024.4 mb - 0.00 in0.0 mm 0.00 in0.0 mm
07:40 AM 31.6°F-0.2°C 28.7°F-1.8°C 89% Calm Calm -- 30.25 in1024.4 mb - 0.00 in0.0 mm 0.00 in0.0 mm
07:30 AM 31.8°F-0.1°C 28.9°F-1.7°C 89% Calm Calm -- 30.25 in1024.4 mb - 0.00 in0.0 mm 0.00 in0.0 mm
07:20 AM 32.0°F0.0°C 29.2°F-1.6°C 89% Calm Calm -- 30.25 in1024.4 mb - 0.00 in0.0 mm 0.00 in0.0 mm
07:10 AM 32.2°F0.1°C 29.3°F-1.5°C 89% Calm Calm -- 30.25 in1024.4 mb - 0.00 in0.0 mm 0.00 in0.0 mm
07:00 AM 32.1°F0.1°C 29.3°F-1.5°C 89% Calm Calm -- 30.26 in1024.7 mb - 0.00 in0.0 mm 0.00 in0.0 mm
06:50 AM 32.1°F0.1°C 29.2°F-1.6°C 89% Calm Calm -- 30.26 in1024.7 mb - 0.00 in0.0 mm 0.00 in0.0 mm
06:40 AM 32.2°F0.1°C 29.3°F-1.5°C 89% Calm Calm -- 30.26 in1024.7 mb - 0.00 in0.0 mm 0.00 in0.0 mm
06:30 AM 32.3°F0.2°C 29.4°F-1.4°C 89% Calm Calm 2.3 mph3.7 kmh 30.27 in1025.1 mb - 0.00 in0.0 mm 0.00 in0.0 mm
06:20 AM 32.7°F0.4°C 29.8°F-1.2°C 89% Calm Calm -- 30.27 in1025.1 mb - 0.00 in0.0 mm 0.00 in0.0 mm
06:10 AM 32.9°F0.5°C 30.0°F-1.1°C 89% Calm Calm -- 30.27 in1025.1 mb - 0.00 in0.0 mm 0.00 in0.0 mm
06:00 AM 33.3°F0.7°C 30.4°F-0.9°C 89% 1.2 mph SSW1.9 kmh SSW 1.2 mph1.9 kmh 30.27 in1025.1 mb - 0.00 in0.0 mm 0.00 in0.0 mm
05:50 AM 34.1°F1.2°C 31.2°F-0.4°C 89% Calm Calm -- 30.28 in1025.4 mb - 0.00 in0.0 mm 0.00 in0.0 mm
05:40 AM 34.5°F1.4°C 31.6°F-0.2°C 89% Calm Calm -- 30.28 in1025.4 mb - 0.00 in0.0 mm 0.00 in0.0 mm
05:30 AM 34.0°F1.1°C 31.1°F-0.5°C 89% 1.2 mph NW1.9 kmh NW 2.3 mph3.7 kmh 30.28 in1025.4 mb - 0.00 in0.0 mm 0.00 in0.0 mm
05:20 AM 33.8°F1.0°C 30.9°F-0.6°C 89% Calm Calm -- 30.28 in1025.4 mb - 0.00 in0.0 mm 0.00 in0.0 mm
05:10 AM 33.5°F0.8°C 30.3°F-0.9°C 88% Calm Calm -- 30.28 in1025.4 mb - 0.00 in0.0 mm 0.00 in0.0 mm
05:00 AM 34.1°F1.2°C 31.2°F-0.4°C 89% Calm Calm -- 30.28 in1025.4 mb - 0.00 in0.0 mm 0.00 in0.0 mm
04:50 AM 34.0°F1.1°C 31.1°F-0.5°C 89% 1.2 mph NW1.9 kmh NW 2.3 mph3.7 kmh 30.29 in1025.7 mb - 0.00 in0.0 mm 0.00 in0.0 mm
04:40 AM 33.9°F1.1°C 30.7°F-0.7°C 88% Calm Calm -- 30.30 in1026.1 mb - 0.00 in0.0 mm 0.00 in0.0 mm
04:30 AM 34.1°F1.2°C 30.9°F-0.6°C 88% Calm Calm 2.3 mph3.7 kmh 30.30 in1026.1 mb - 0.00 in0.0 mm 0.00 in0.0 mm
04:20 AM 34.5°F1.4°C 31.3°F-0.4°C 88% Calm Calm -- 30.30 in1026.1 mb - 0.00 in0.0 mm 0.00 in0.0 mm
04:10 AM 35.1°F1.7°C 31.9°F-0.1°C 88% Calm Calm -- 30.30 in1026.1 mb - 0.00 in0.0 mm 0.00 in0.0 mm
04:00 AM 35.5°F1.9°C 32.3°F0.2°C 88% 2.3 mph NW3.7 kmh NW 2.3 mph3.7 kmh 30.30 in1026.1 mb - 0.00 in0.0 mm 0.00 in0.0 mm
03:50 AM 35.6°F2.0°C 32.4°F0.2°C 88% 3.5 mph NW5.6 kmh NW 5.8 mph9.3 kmh 30.30 in1026.1 mb - 0.00 in0.0 mm 0.00 in0.0 mm
03:40 AM 35.6°F2.0°C 32.4°F0.2°C 88% 2.3 mph WNW3.7 kmh WNW 2.3 mph3.7 kmh 30.31 in1026.4 mb - 0.00 in0.0 mm 0.00 in0.0 mm
03:30 AM 35.7°F2.1°C 32.5°F0.3°C 88% 2.3 mph NW3.7 kmh NW 4.6 mph7.4 kmh 30.32 in1026.8 mb - 0.00 in0.0 mm 0.00 in0.0 mm
03:20 AM 35.8°F2.1°C 32.6°F0.3°C 88% 1.2 mph NW1.9 kmh NW 4.6 mph7.4 kmh 30.32 in1026.8 mb - 0.00 in0.0 mm 0.00 in0.0 mm
03:10 AM 35.9°F2.2°C 32.7°F0.4°C 88% 4.6 mph NW7.4 kmh NW 6.9 mph11.1 kmh 30.32 in1026.8 mb - 0.00 in0.0 mm 0.00 in0.0 mm
03:00 AM 36.0°F2.2°C 32.8°F0.4°C 88% 4.6 mph NW7.4 kmh NW 6.9 mph11.1 kmh 30.32 in1026.8 mb - 0.00 in0.0 mm 0.00 in0.0 mm
02:50 AM 36.0°F2.2°C 32.8°F0.4°C 88% 3.5 mph NW5.6 kmh NW 5.8 mph9.3 kmh 30.32 in1026.8 mb - 0.00 in0.0 mm 0.00 in0.0 mm
02:40 AM 36.1°F2.3°C 32.9°F0.5°C 88% 4.6 mph NW7.4 kmh NW 8.1 mph13.0 kmh 30.32 in1026.8 mb - 0.00 in0.0 mm 0.00 in0.0 mm
02:30 AM 36.1°F2.3°C 32.9°F0.5°C 88% 2.3 mph NW3.7 kmh NW 5.8 mph9.3 kmh 30.32 in1026.8 mb - 0.00 in0.0 mm 0.00 in0.0 mm
02:20 AM 36.0°F2.2°C 32.8°F0.4°C 88% 3.5 mph NW5.6 kmh NW 5.8 mph9.3 kmh 30.32 in1026.8 mb - 0.00 in0.0 mm 0.00 in0.0 mm
02:10 AM 36.1°F2.3°C 32.9°F0.5°C 88% 3.5 mph NW5.6 kmh NW 6.9 mph11.1 kmh 30.32 in1026.8 mb - 0.00 in0.0 mm 0.00 in0.0 mm
02:00 AM 36.1°F2.3°C 32.9°F0.5°C 88% 2.3 mph NW3.7 kmh NW 5.8 mph9.3 kmh 30.32 in1026.8 mb - 0.00 in0.0 mm 0.00 in0.0 mm
01:50 AM 35.6°F2.0°C 32.4°F0.2°C 88% 3.5 mph NW5.6 kmh NW 5.8 mph9.3 kmh 30.33 in1027.1 mb - 0.00 in0.0 mm 0.00 in0.0 mm
01:40 AM 35.0°F1.7°C 31.5°F-0.3°C 87% Calm Calm -- 30.33 in1027.1 mb - 0.00 in0.0 mm 0.00 in0.0 mm
01:30 AM 36.2°F2.3°C 33.0°F0.6°C 88% Calm Calm -- 30.33 in1027.1 mb - 0.00 in0.0 mm 0.00 in0.0 mm
01:20 AM 36.2°F2.3°C 33.0°F0.6°C 88% 2.3 mph NW3.7 kmh NW 5.8 mph9.3 kmh 30.33 in1027.1 mb - 0.00 in0.0 mm 0.00 in0.0 mm
01:10 AM 35.7°F2.1°C 32.5°F0.3°C 88% 4.6 mph NW7.4 kmh NW 5.8 mph9.3 kmh 30.34 in1027.4 mb - 0.00 in0.0 mm 0.00 in0.0 mm
01:00 AM 35.0°F1.7°C 31.8°F-0.1°C 88% 1.2 mph WNW1.9 kmh WNW 2.3 mph3.7 kmh 30.34 in1027.4 mb - 0.00 in0.0 mm 0.00 in0.0 mm
12:50 AM 35.6°F2.0°C 32.3°F0.2°C 88% Calm Calm -- 30.34 in1027.4 mb - 0.00 in0.0 mm 0.00 in0.0 mm
12:40 AM 36.4°F2.4°C 33.2°F0.7°C 88% Calm Calm 2.3 mph3.7 kmh 30.35 in1027.8 mb - 0.00 in0.0 mm 0.00 in0.0 mm
12:30 AM 36.5°F2.5°C 33.3°F0.7°C 88% 3.5 mph WNW5.6 kmh WNW 5.8 mph9.3 kmh 30.35 in1027.8 mb - 0.00 in0.0 mm 0.00 in0.0 mm
12:20 AM 36.6°F2.6°C 33.4°F0.8°C 88% 2.3 mph WNW3.7 kmh WNW 4.6 mph7.4 kmh 30.35 in1027.8 mb - 0.00 in0.0 mm 0.00 in0.0 mm
12:10 AM 36.6°F2.6°C 33.4°F0.8°C 88% Calm Calm 2.3 mph3.7 kmh 30.35 in1027.8 mb - 0.00 in0.0 mm 0.00 in0.0 mm
12:00 AM 36.9°F2.7°C 33.7°F0.9°C 88% 1.2 mph NNW1.9 kmh NNW 2.3 mph3.7 kmh 30.35 in1027.8 mb - 0.00 in0.0 mm 0.00 in0.0 mm